sensor_id;sensor_type;location;lat;lon;timestamp;P1;durP1;ratioP1;P2;durP2;ratioP2
66298;SDS011;53098;47.658;8.578;2023-06-26T00:00:25;7.97;;;3.80;;
66298;SDS011;53098;47.658;8.578;2023-06-26T00:02:51;8.63;;;4.43;;
66298;SDS011;53098;47.658;8.578;2023-06-26T00:05:16;7.83;;;3.90;;
66298;SDS011;53098;47.658;8.578;2023-06-26T00:07:41;9.43;;;3.87;;
66298;SDS011;53098;47.658;8.578;2023-06-26T00:10:06;8.80;;;3.90;;
66298;SDS011;53098;47.658;8.578;2023-06-26T00:12:32;9.60;;;4.38;;
66298;SDS011;53098;47.658;8.578;2023-06-26T00:14:58;8.90;;;4.13;;
66298;SDS011;53098;47.658;8.578;2023-06-26T00:17:23;9.55;;;4.05;;
66298;SDS011;53098;47.658;8.578;2023-06-26T00:19:50;8.17;;;3.77;;
66298;SDS011;53098;47.658;8.578;2023-06-26T00:22:15;9.05;;;4.10;;
66298;SDS011;53098;47.658;8.578;2023-06-26T00:24:41;8.80;;;4.10;;
66298;SDS011;53098;47.658;8.578;2023-06-26T00:27:06;9.70;;;4.13;;
66298;SDS011;53098;47.658;8.578;2023-06-26T00:29:31;9.80;;;4.20;;
66298;SDS011;53098;47.658;8.578;2023-06-26T00:31:56;7.90;;;4.00;;
66298;SDS011;53098;47.658;8.578;2023-06-26T00:34:22;7.60;;;3.80;;
66298;SDS011;53098;47.658;8.578;2023-06-26T00:36:47;8.73;;;4.10;;
66298;SDS011;53098;47.658;8.578;2023-06-26T00:39:12;8.17;;;4.17;;
66298;SDS011;53098;47.658;8.578;2023-06-26T00:41:37;9.13;;;4.47;;
66298;SDS011;53098;47.658;8.578;2023-06-26T00:44:06;9.67;;;4.33;;
66298;SDS011;53098;47.658;8.578;2023-06-26T00:46:31;8.32;;;4.00;;
66298;SDS011;53098;47.658;8.578;2023-06-26T00:48:58;8.80;;;4.35;;
66298;SDS011;53098;47.658;8.578;2023-06-26T00:51:24;9.93;;;4.20;;
66298;SDS011;53098;47.658;8.578;2023-06-26T00:53:49;10.43;;;4.60;;
66298;SDS011;53098;47.658;8.578;2023-06-26T00:56:15;8.30;;;4.20;;
66298;SDS011;53098;47.658;8.578;2023-06-26T00:58:40;8.80;;;4.53;;
66298;SDS011;53098;47.658;8.578;2023-06-26T01:01:05;9.53;;;4.20;;
66298;SDS011;53098;47.658;8.578;2023-06-26T01:03:30;8.03;;;3.77;;
66298;SDS011;53098;47.658;8.578;2023-06-26T01:05:56;8.25;;;4.18;;
66298;SDS011;53098;47.658;8.578;2023-06-26T01:08:22;9.68;;;4.18;;
66298;SDS011;53098;47.658;8.578;2023-06-26T01:10:48;8.25;;;4.00;;
66298;SDS011;53098;47.658;8.578;2023-06-26T01:13:13;9.17;;;4.20;;
66298;SDS011;53098;47.658;8.578;2023-06-26T01:15:40;8.48;;;4.00;;
66298;SDS011;53098;47.658;8.578;2023-06-26T01:18:06;8.85;;;4.07;;
66298;SDS011;53098;47.658;8.578;2023-06-26T01:20:32;9.10;;;4.47;;
66298;SDS011;53098;47.658;8.578;2023-06-26T01:23:05;8.07;;;4.03;;
66298;SDS011;53098;47.658;8.578;2023-06-26T01:27:57;8.30;;;4.13;;
66298;SDS011;53098;47.658;8.578;2023-06-26T01:30:23;7.72;;;3.75;;
66298;SDS011;53098;47.658;8.578;2023-06-26T01:32:50;9.02;;;4.20;;
66298;SDS011;53098;47.658;8.578;2023-06-26T01:35:15;7.97;;;4.30;;
66298;SDS011;53098;47.658;8.578;2023-06-26T01:37:41;8.67;;;4.27;;
66298;SDS011;53098;47.658;8.578;2023-06-26T01:40:06;8.43;;;4.20;;
66298;SDS011;53098;47.658;8.578;2023-06-26T01:42:32;8.45;;;4.25;;
66298;SDS011;53098;47.658;8.578;2023-06-26T01:44:57;7.78;;;4.35;;
66298;SDS011;53098;47.658;8.578;2023-06-26T01:47:25;8.32;;;4.00;;
66298;SDS011;53098;47.658;8.578;2023-06-26T01:50:00;8.65;;;4.32;;
66298;SDS011;53098;47.658;8.578;2023-06-26T01:53:29;8.85;;;4.28;;
66298;SDS011;53098;47.658;8.578;2023-06-26T01:55:32;8.57;;;3.88;;
66298;SDS011;53098;47.658;8.578;2023-06-26T01:57:57;8.38;;;4.13;;
66298;SDS011;53098;47.658;8.578;2023-06-26T02:00:23;10.23;;;4.50;;
66298;SDS011;53098;47.658;8.578;2023-06-26T02:02:49;9.30;;;3.97;;
66298;SDS011;53098;47.658;8.578;2023-06-26T02:05:14;9.18;;;3.80;;
66298;SDS011;53098;47.658;8.578;2023-06-26T02:07:40;10.10;;;4.27;;
66298;SDS011;53098;47.658;8.578;2023-06-26T02:10:05;8.23;;;4.05;;
66298;SDS011;53098;47.658;8.578;2023-06-26T02:12:31;10.00;;;4.60;;
66298;SDS011;53098;47.658;8.578;2023-06-26T02:14:56;7.57;;;4.17;;
66298;SDS011;53098;47.658;8.578;2023-06-26T02:17:21;11.77;;;4.50;;
66298;SDS011;53098;47.658;8.578;2023-06-26T02:19:46;8.87;;;4.23;;
66298;SDS011;53098;47.658;8.578;2023-06-26T02:22:12;12.07;;;4.23;;
66298;SDS011;53098;47.658;8.578;2023-06-26T02:24:37;9.50;;;4.63;;
66298;SDS011;53098;47.658;8.578;2023-06-26T02:27:02;9.13;;;4.40;;
66298;SDS011;53098;47.658;8.578;2023-06-26T02:29:28;8.70;;;4.57;;
66298;SDS011;53098;47.658;8.578;2023-06-26T02:31:53;8.80;;;4.27;;
66298;SDS011;53098;47.658;8.578;2023-06-26T02:34:18;9.57;;;4.53;;
66298;SDS011;53098;47.658;8.578;2023-06-26T02:36:43;10.03;;;4.67;;
66298;SDS011;53098;47.658;8.578;2023-06-26T02:39:08;10.80;;;4.30;;
66298;SDS011;53098;47.658;8.578;2023-06-26T02:41:34;10.40;;;4.73;;
66298;SDS011;53098;47.658;8.578;2023-06-26T02:43:59;8.00;;;4.20;;
66298;SDS011;53098;47.658;8.578;2023-06-26T02:46:24;8.93;;;4.73;;
66298;SDS011;53098;47.658;8.578;2023-06-26T02:48:49;9.37;;;4.20;;
66298;SDS011;53098;47.658;8.578;2023-06-26T02:51:15;11.43;;;4.67;;
66298;SDS011;53098;47.658;8.578;2023-06-26T02:53:40;8.07;;;4.20;;
66298;SDS011;53098;47.658;8.578;2023-06-26T02:56:05;8.87;;;4.77;;
66298;SDS011;53098;47.658;8.578;2023-06-26T02:58:30;8.87;;;4.53;;
66298;SDS011;53098;47.658;8.578;2023-06-26T03:00:55;8.60;;;4.57;;
66298;SDS011;53098;47.658;8.578;2023-06-26T03:03:21;9.30;;;4.23;;
66298;SDS011;53098;47.658;8.578;2023-06-26T03:05:46;9.60;;;4.43;;
66298;SDS011;53098;47.658;8.578;2023-06-26T03:08:11;13.40;;;4.60;;
66298;SDS011;53098;47.658;8.578;2023-06-26T03:10:36;9.63;;;4.40;;
66298;SDS011;53098;47.658;8.578;2023-06-26T03:13:02;9.50;;;4.30;;
66298;SDS011;53098;47.658;8.578;2023-06-26T03:15:27;8.33;;;4.40;;
66298;SDS011;53098;47.658;8.578;2023-06-26T03:17:52;9.20;;;4.60;;
66298;SDS011;53098;47.658;8.578;2023-06-26T03:20:17;9.80;;;4.50;;
66298;SDS011;53098;47.658;8.578;2023-06-26T03:22:43;9.07;;;4.57;;
66298;SDS011;53098;47.658;8.578;2023-06-26T03:25:08;9.67;;;5.10;;
66298;SDS011;53098;47.658;8.578;2023-06-26T03:27:33;10.07;;;4.43;;
66298;SDS011;53098;47.658;8.578;2023-06-26T03:29:58;8.90;;;4.73;;
66298;SDS011;53098;47.658;8.578;2023-06-26T03:32:24;9.20;;;4.47;;
66298;SDS011;53098;47.658;8.578;2023-06-26T03:34:49;8.93;;;4.97;;
66298;SDS011;53098;47.658;8.578;2023-06-26T03:37:14;9.80;;;5.17;;
66298;SDS011;53098;47.658;8.578;2023-06-26T03:39:39;9.30;;;4.57;;
66298;SDS011;53098;47.658;8.578;2023-06-26T03:42:05;8.90;;;4.50;;
66298;SDS011;53098;47.658;8.578;2023-06-26T03:44:30;10.30;;;5.10;;
66298;SDS011;53098;47.658;8.578;2023-06-26T03:46:56;9.63;;;4.50;;
66298;SDS011;53098;47.658;8.578;2023-06-26T03:49:21;10.73;;;5.00;;
66298;SDS011;53098;47.658;8.578;2023-06-26T03:51:46;9.13;;;4.57;;
66298;SDS011;53098;47.658;8.578;2023-06-26T03:54:11;8.70;;;4.80;;
66298;SDS011;53098;47.658;8.578;2023-06-26T03:56:36;10.20;;;5.40;;
66298;SDS011;53098;47.658;8.578;2023-06-26T03:59:02;11.63;;;5.17;;
66298;SDS011;53098;47.658;8.578;2023-06-26T04:01:27;9.60;;;5.37;;
66298;SDS011;53098;47.658;8.578;2023-06-26T04:03:52;10.00;;;5.33;;
66298;SDS011;53098;47.658;8.578;2023-06-26T04:06:18;8.93;;;4.95;;
66298;SDS011;53098;47.658;8.578;2023-06-26T04:08:43;13.77;;;5.00;;
66298;SDS011;53098;47.658;8.578;2023-06-26T04:11:08;9.77;;;4.97;;
66298;SDS011;53098;47.658;8.578;2023-06-26T04:13:33;11.10;;;5.13;;
66298;SDS011;53098;47.658;8.578;2023-06-26T04:15:59;13.10;;;5.43;;
66298;SDS011;53098;47.658;8.578;2023-06-26T04:18:24;9.37;;;5.07;;
66298;SDS011;53098;47.658;8.578;2023-06-26T04:21:23;11.43;;;5.43;;
66298;SDS011;53098;47.658;8.578;2023-06-26T04:23:41;9.68;;;5.10;;
66298;SDS011;53098;47.658;8.578;2023-06-26T04:26:06;12.37;;;5.20;;
66298;SDS011;53098;47.658;8.578;2023-06-26T04:28:34;11.10;;;5.07;;
66298;SDS011;53098;47.658;8.578;2023-06-26T04:31:00;10.65;;;5.40;;
66298;SDS011;53098;47.658;8.578;2023-06-26T04:33:26;10.45;;;5.10;;
66298;SDS011;53098;47.658;8.578;2023-06-26T04:35:51;11.20;;;5.00;;
66298;SDS011;53098;47.658;8.578;2023-06-26T04:38:17;11.13;;;5.40;;
66298;SDS011;53098;47.658;8.578;2023-06-26T04:40:42;10.05;;;5.47;;
66298;SDS011;53098;47.658;8.578;2023-06-26T04:43:07;11.57;;;5.17;;
66298;SDS011;53098;47.658;8.578;2023-06-26T04:45:33;11.37;;;5.07;;
66298;SDS011;53098;47.658;8.578;2023-06-26T04:47:58;11.93;;;5.20;;
66298;SDS011;53098;47.658;8.578;2023-06-26T04:50:23;11.30;;;5.63;;
66298;SDS011;53098;47.658;8.578;2023-06-26T04:52:48;11.33;;;5.07;;
66298;SDS011;53098;47.658;8.578;2023-06-26T04:55:13;9.43;;;5.00;;
66298;SDS011;53098;47.658;8.578;2023-06-26T04:57:39;10.57;;;5.33;;
66298;SDS011;53098;47.658;8.578;2023-06-26T05:00:04;9.37;;;5.33;;
66298;SDS011;53098;47.658;8.578;2023-06-26T05:02:29;9.77;;;4.88;;
66298;SDS011;53098;47.658;8.578;2023-06-26T05:04:55;9.53;;;4.90;;
66298;SDS011;53098;47.658;8.578;2023-06-26T05:07:20;9.70;;;4.83;;
66298;SDS011;53098;47.658;8.578;2023-06-26T05:09:45;10.53;;;5.80;;
66298;SDS011;53098;47.658;8.578;2023-06-26T05:12:10;9.00;;;5.33;;
66298;SDS011;53098;47.658;8.578;2023-06-26T05:14:36;11.47;;;5.90;;
66298;SDS011;53098;47.658;8.578;2023-06-26T05:17:01;12.10;;;5.47;;
66298;SDS011;53098;47.658;8.578;2023-06-26T05:19:26;11.23;;;5.40;;
66298;SDS011;53098;47.658;8.578;2023-06-26T05:21:51;9.60;;;5.10;;
66298;SDS011;53098;47.658;8.578;2023-06-26T05:24:17;9.35;;;4.95;;
66298;SDS011;53098;47.658;8.578;2023-06-26T05:26:44;10.80;;;5.43;;
66298;SDS011;53098;47.658;8.578;2023-06-26T05:29:09;10.40;;;5.35;;
66298;SDS011;53098;47.658;8.578;2023-06-26T05:31:34;10.63;;;5.55;;
66298;SDS011;53098;47.658;8.578;2023-06-26T05:34:02;10.38;;;5.40;;
66298;SDS011;53098;47.658;8.578;2023-06-26T05:36:28;10.35;;;5.50;;
66298;SDS011;53098;47.658;8.578;2023-06-26T05:38:54;11.05;;;5.05;;
66298;SDS011;53098;47.658;8.578;2023-06-26T05:41:19;15.35;;;5.40;;
66298;SDS011;53098;47.658;8.578;2023-06-26T05:43:44;9.20;;;5.43;;
66298;SDS011;53098;47.658;8.578;2023-06-26T05:46:10;9.50;;;5.43;;
66298;SDS011;53098;47.658;8.578;2023-06-26T05:48:35;11.13;;;5.13;;
66298;SDS011;53098;47.658;8.578;2023-06-26T05:51:00;9.87;;;4.87;;
66298;SDS011;53098;47.658;8.578;2023-06-26T05:53:26;11.65;;;5.70;;
66298;SDS011;53098;47.658;8.578;2023-06-26T05:55:51;11.65;;;5.70;;
66298;SDS011;53098;47.658;8.578;2023-06-26T05:58:17;13.40;;;5.50;;
66298;SDS011;53098;47.658;8.578;2023-06-26T06:00:43;10.77;;;5.63;;
66298;SDS011;53098;47.658;8.578;2023-06-26T06:03:09;10.20;;;5.60;;
66298;SDS011;53098;47.658;8.578;2023-06-26T06:05:34;10.80;;;5.43;;
66298;SDS011;53098;47.658;8.578;2023-06-26T06:08:00;10.33;;;5.63;;
66298;SDS011;53098;47.658;8.578;2023-06-26T06:10:25;10.43;;;5.60;;
66298;SDS011;53098;47.658;8.578;2023-06-26T06:12:50;12.50;;;5.63;;
66298;SDS011;53098;47.658;8.578;2023-06-26T06:15:15;9.87;;;5.73;;
66298;SDS011;53098;47.658;8.578;2023-06-26T06:17:40;11.50;;;5.63;;
66298;SDS011;53098;47.658;8.578;2023-06-26T06:20:06;12.07;;;5.80;;
66298;SDS011;53098;47.658;8.578;2023-06-26T06:22:31;9.93;;;5.55;;
66298;SDS011;53098;47.658;8.578;2023-06-26T06:24:56;10.87;;;5.80;;
66298;SDS011;53098;47.658;8.578;2023-06-26T06:27:22;10.70;;;5.57;;
66298;SDS011;53098;47.658;8.578;2023-06-26T06:29:47;10.13;;;5.53;;
66298;SDS011;53098;47.658;8.578;2023-06-26T06:32:12;10.87;;;5.73;;
66298;SDS011;53098;47.658;8.578;2023-06-26T06:34:37;9.80;;;5.90;;
66298;SDS011;53098;47.658;8.578;2023-06-26T06:37:03;14.03;;;5.80;;
66298;SDS011;53098;47.658;8.578;2023-06-26T06:39:28;11.80;;;6.18;;
66298;SDS011;53098;47.658;8.578;2023-06-26T06:41:53;13.60;;;6.03;;
66298;SDS011;53098;47.658;8.578;2023-06-26T06:44:18;12.23;;;5.53;;
66298;SDS011;53098;47.658;8.578;2023-06-26T06:46:44;10.43;;;5.67;;
66298;SDS011;53098;47.658;8.578;2023-06-26T06:49:09;11.73;;;6.00;;
66298;SDS011;53098;47.658;8.578;2023-06-26T06:51:34;13.00;;;6.10;;
66298;SDS011;53098;47.658;8.578;2023-06-26T06:53:59;13.37;;;7.40;;
66298;SDS011;53098;47.658;8.578;2023-06-26T06:56:25;13.10;;;6.87;;
66298;SDS011;53098;47.658;8.578;2023-06-26T06:58:50;11.97;;;5.90;;
66298;SDS011;53098;47.658;8.578;2023-06-26T07:01:15;11.40;;;6.40;;
66298;SDS011;53098;47.658;8.578;2023-06-26T07:03:40;12.43;;;5.83;;
66298;SDS011;53098;47.658;8.578;2023-06-26T07:06:06;14.07;;;7.13;;
66298;SDS011;53098;47.658;8.578;2023-06-26T07:08:31;11.03;;;6.00;;
66298;SDS011;53098;47.658;8.578;2023-06-26T07:10:56;12.30;;;6.03;;
66298;SDS011;53098;47.658;8.578;2023-06-26T07:13:21;13.73;;;5.90;;
66298;SDS011;53098;47.658;8.578;2023-06-26T07:15:47;11.30;;;6.20;;
66298;SDS011;53098;47.658;8.578;2023-06-26T07:18:12;12.07;;;6.17;;
66298;SDS011;53098;47.658;8.578;2023-06-26T07:20:37;16.17;;;6.57;;
66298;SDS011;53098;47.658;8.578;2023-06-26T07:23:02;12.27;;;5.97;;
66298;SDS011;53098;47.658;8.578;2023-06-26T07:25:28;10.27;;;6.20;;
66298;SDS011;53098;47.658;8.578;2023-06-26T07:27:53;13.63;;;5.97;;
66298;SDS011;53098;47.658;8.578;2023-06-26T07:30:18;12.17;;;6.07;;
66298;SDS011;53098;47.658;8.578;2023-06-26T07:32:44;11.17;;;5.70;;
66298;SDS011;53098;47.658;8.578;2023-06-26T07:35:09;12.52;;;6.20;;
66298;SDS011;53098;47.658;8.578;2023-06-26T07:37:34;15.60;;;5.77;;
66298;SDS011;53098;47.658;8.578;2023-06-26T07:40:00;11.07;;;6.00;;
66298;SDS011;53098;47.658;8.578;2023-06-26T07:42:25;10.50;;;6.03;;
66298;SDS011;53098;47.658;8.578;2023-06-26T07:44:50;10.53;;;6.40;;
66298;SDS011;53098;47.658;8.578;2023-06-26T07:47:15;14.53;;;6.23;;
66298;SDS011;53098;47.658;8.578;2023-06-26T07:49:41;11.77;;;6.00;;
66298;SDS011;53098;47.658;8.578;2023-06-26T07:52:06;13.27;;;6.00;;
66298;SDS011;53098;47.658;8.578;2023-06-26T07:54:31;14.10;;;6.32;;
66298;SDS011;53098;47.658;8.578;2023-06-26T07:56:58;10.83;;;6.10;;
66298;SDS011;53098;47.658;8.578;2023-06-26T07:59:24;11.20;;;5.85;;
66298;SDS011;53098;47.658;8.578;2023-06-26T08:01:50;11.60;;;5.88;;
66298;SDS011;53098;47.658;8.578;2023-06-26T08:04:15;10.85;;;5.60;;
66298;SDS011;53098;47.658;8.578;2023-06-26T08:06:41;9.80;;;5.63;;
66298;SDS011;53098;47.658;8.578;2023-06-26T08:09:06;10.00;;;5.67;;
66298;SDS011;53098;47.658;8.578;2023-06-26T08:11:32;11.57;;;6.28;;
66298;SDS011;53098;47.658;8.578;2023-06-26T08:13:57;11.67;;;5.03;;
66298;SDS011;53098;47.658;8.578;2023-06-26T08:16:22;10.47;;;5.47;;
66298;SDS011;53098;47.658;8.578;2023-06-26T08:18:48;11.47;;;5.67;;
66298;SDS011;53098;47.658;8.578;2023-06-26T08:21:13;11.67;;;5.87;;
66298;SDS011;53098;47.658;8.578;2023-06-26T08:23:38;9.87;;;5.90;;
66298;SDS011;53098;47.658;8.578;2023-06-26T08:26:03;11.73;;;5.77;;
66298;SDS011;53098;47.658;8.578;2023-06-26T08:28:29;10.40;;;5.93;;
66298;SDS011;53098;47.658;8.578;2023-06-26T08:30:54;10.47;;;5.67;;
66298;SDS011;53098;47.658;8.578;2023-06-26T08:33:19;10.80;;;5.93;;
66298;SDS011;53098;47.658;8.578;2023-06-26T08:35:44;9.30;;;5.73;;
66298;SDS011;53098;47.658;8.578;2023-06-26T08:38:10;11.70;;;5.83;;
66298;SDS011;53098;47.658;8.578;2023-06-26T08:40:35;11.93;;;5.80;;
66298;SDS011;53098;47.658;8.578;2023-06-26T08:43:00;11.10;;;4.90;;
66298;SDS011;53098;47.658;8.578;2023-06-26T08:45:25;9.13;;;5.13;;
66298;SDS011;53098;47.658;8.578;2023-06-26T08:47:51;15.97;;;5.30;;
66298;SDS011;53098;47.658;8.578;2023-06-26T08:50:18;10.02;;;4.88;;
66298;SDS011;53098;47.658;8.578;2023-06-26T08:55:42;11.88;;;5.25;;
66298;SDS011;53098;47.658;8.578;2023-06-26T08:58:08;11.15;;;5.03;;
66298;SDS011;53098;47.658;8.578;2023-06-26T09:00:33;10.33;;;4.93;;
66298;SDS011;53098;47.658;8.578;2023-06-26T09:02:59;10.15;;;5.22;;
66298;SDS011;53098;47.658;8.578;2023-06-26T09:05:25;9.70;;;4.82;;
66298;SDS011;53098;47.658;8.578;2023-06-26T09:07:50;8.90;;;4.65;;
66298;SDS011;53098;47.658;8.578;2023-06-26T09:10:16;9.67;;;5.10;;
66298;SDS011;53098;47.658;8.578;2023-06-26T09:12:41;11.30;;;4.67;;
66298;SDS011;53098;47.658;8.578;2023-06-26T09:15:10;13.80;;;5.20;;
66298;SDS011;53098;47.658;8.578;2023-06-26T09:17:39;10.20;;;5.38;;
66298;SDS011;53098;47.658;8.578;2023-06-26T09:20:04;8.82;;;5.00;;
66298;SDS011;53098;47.658;8.578;2023-06-26T09:22:33;10.80;;;4.75;;
66298;SDS011;53098;47.658;8.578;2023-06-26T09:24:58;11.10;;;5.22;;
66298;SDS011;53098;47.658;8.578;2023-06-26T09:27:23;10.27;;;5.70;;
66298;SDS011;53098;47.658;8.578;2023-06-26T09:29:49;12.13;;;4.83;;
66298;SDS011;53098;47.658;8.578;2023-06-26T09:32:14;11.23;;;5.18;;
66298;SDS011;53098;47.658;8.578;2023-06-26T09:34:41;10.77;;;5.13;;
66298;SDS011;53098;47.658;8.578;2023-06-26T09:37:06;9.40;;;4.38;;
66298;SDS011;53098;47.658;8.578;2023-06-26T09:39:31;8.43;;;4.60;;
66298;SDS011;53098;47.658;8.578;2023-06-26T09:41:56;10.20;;;4.70;;
66298;SDS011;53098;47.658;8.578;2023-06-26T09:44:22;9.37;;;4.80;;
66298;SDS011;53098;47.658;8.578;2023-06-26T09:46:47;8.48;;;4.55;;
66298;SDS011;53098;47.658;8.578;2023-06-26T09:49:12;12.07;;;5.00;;
66298;SDS011;53098;47.658;8.578;2023-06-26T09:51:38;8.00;;;4.27;;
66298;SDS011;53098;47.658;8.578;2023-06-26T09:54:04;9.88;;;4.32;;
66298;SDS011;53098;47.658;8.578;2023-06-26T09:56:30;10.70;;;4.70;;
66298;SDS011;53098;47.658;8.578;2023-06-26T09:58:55;10.00;;;4.50;;
66298;SDS011;53098;47.658;8.578;2023-06-26T10:01:21;7.63;;;4.20;;
66298;SDS011;53098;47.658;8.578;2023-06-26T10:03:46;7.67;;;4.27;;
66298;SDS011;53098;47.658;8.578;2023-06-26T10:06:11;8.37;;;4.60;;
66298;SDS011;53098;47.658;8.578;2023-06-26T10:08:37;8.38;;;4.35;;
66298;SDS011;53098;47.658;8.578;2023-06-26T10:11:02;8.00;;;4.22;;
66298;SDS011;53098;47.658;8.578;2023-06-26T10:13:30;9.50;;;4.73;;
66298;SDS011;53098;47.658;8.578;2023-06-26T10:15:56;10.13;;;4.88;;
66298;SDS011;53098;47.658;8.578;2023-06-26T10:18:23;12.77;;;4.80;;
66298;SDS011;53098;47.658;8.578;2023-06-26T10:20:49;9.05;;;5.30;;
66298;SDS011;53098;47.658;8.578;2023-06-26T10:23:18;10.27;;;4.88;;
66298;SDS011;53098;47.658;8.578;2023-06-26T10:25:45;10.45;;;4.30;;
66298;SDS011;53098;47.658;8.578;2023-06-26T10:28:11;10.38;;;4.95;;
66298;SDS011;53098;47.658;8.578;2023-06-26T10:30:37;9.23;;;5.05;;
66298;SDS011;53098;47.658;8.578;2023-06-26T10:33:04;8.90;;;4.55;;
66298;SDS011;53098;47.658;8.578;2023-06-26T10:35:30;9.95;;;5.10;;
66298;SDS011;53098;47.658;8.578;2023-06-26T10:37:59;10.35;;;5.07;;
66298;SDS011;53098;47.658;8.578;2023-06-26T10:40:28;8.93;;;5.22;;
66298;SDS011;53098;47.658;8.578;2023-06-26T10:43:14;11.43;;;4.82;;
66298;SDS011;53098;47.658;8.578;2023-06-26T10:45:45;10.93;;;4.63;;
66298;SDS011;53098;47.658;8.578;2023-06-26T10:48:12;9.40;;;4.68;;
66298;SDS011;53098;47.658;8.578;2023-06-26T10:50:38;10.13;;;4.85;;
66298;SDS011;53098;47.658;8.578;2023-06-26T10:53:21;9.33;;;5.53;;
66298;SDS011;53098;47.658;8.578;2023-06-26T10:56:00;8.48;;;4.90;;
66298;SDS011;53098;47.658;8.578;2023-06-26T10:58:29;9.20;;;4.68;;
66298;SDS011;53098;47.658;8.578;2023-06-26T11:03:39;10.07;;;5.25;;
66298;SDS011;53098;47.658;8.578;2023-06-26T11:06:15;8.98;;;4.93;;
66298;SDS011;53098;47.658;8.578;2023-06-26T11:11:11;9.45;;;5.60;;
66298;SDS011;53098;47.658;8.578;2023-06-26T11:13:36;10.77;;;5.17;;
66298;SDS011;53098;47.658;8.578;2023-06-26T11:16:02;12.65;;;5.28;;
66298;SDS011;53098;47.658;8.578;2023-06-26T11:18:27;9.38;;;5.22;;
66298;SDS011;53098;47.658;8.578;2023-06-26T11:20:53;12.02;;;5.78;;
66298;SDS011;53098;47.658;8.578;2023-06-26T11:23:20;9.73;;;5.25;;
66298;SDS011;53098;47.658;8.578;2023-06-26T11:25:47;10.60;;;5.70;;
66298;SDS011;53098;47.658;8.578;2023-06-26T11:28:12;9.83;;;5.60;;
66298;SDS011;53098;47.658;8.578;2023-06-26T11:30:37;10.73;;;5.47;;
66298;SDS011;53098;47.658;8.578;2023-06-26T11:33:06;12.53;;;5.93;;
66298;SDS011;53098;47.658;8.578;2023-06-26T11:35:32;9.63;;;5.70;;
66298;SDS011;53098;47.658;8.578;2023-06-26T11:37:57;11.00;;;5.77;;
66298;SDS011;53098;47.658;8.578;2023-06-26T11:40:22;10.73;;;5.93;;
66298;SDS011;53098;47.658;8.578;2023-06-26T11:42:48;12.05;;;6.28;;
66298;SDS011;53098;47.658;8.578;2023-06-26T11:45:13;9.93;;;6.23;;
66298;SDS011;53098;47.658;8.578;2023-06-26T11:47:39;11.40;;;5.75;;
66298;SDS011;53098;47.658;8.578;2023-06-26T11:50:04;9.07;;;5.38;;
66298;SDS011;53098;47.658;8.578;2023-06-26T11:52:30;9.73;;;5.78;;
66298;SDS011;53098;47.658;8.578;2023-06-26T11:54:57;10.40;;;6.00;;
66298;SDS011;53098;47.658;8.578;2023-06-26T11:57:22;16.83;;;5.90;;
66298;SDS011;53098;47.658;8.578;2023-06-26T11:59:49;10.63;;;5.97;;
66298;SDS011;53098;47.658;8.578;2023-06-26T12:02:14;10.13;;;5.93;;
66298;SDS011;53098;47.658;8.578;2023-06-26T12:04:41;12.30;;;6.23;;
66298;SDS011;53098;47.658;8.578;2023-06-26T12:07:07;12.68;;;5.95;;
66298;SDS011;53098;47.658;8.578;2023-06-26T12:09:33;11.13;;;5.93;;
66298;SDS011;53098;47.658;8.578;2023-06-26T12:11:58;11.82;;;6.00;;
66298;SDS011;53098;47.658;8.578;2023-06-26T12:14:24;11.60;;;6.03;;
66298;SDS011;53098;47.658;8.578;2023-06-26T12:16:49;10.88;;;5.57;;
66298;SDS011;53098;47.658;8.578;2023-06-26T12:19:15;10.97;;;6.07;;
66298;SDS011;53098;47.658;8.578;2023-06-26T12:24:06;10.57;;;6.00;;
66298;SDS011;53098;47.658;8.578;2023-06-26T12:26:32;13.13;;;6.20;;
66298;SDS011;53098;47.658;8.578;2023-06-26T12:31:29;11.32;;;5.82;;
66298;SDS011;53098;47.658;8.578;2023-06-26T12:33:54;9.60;;;5.75;;
66298;SDS011;53098;47.658;8.578;2023-06-26T12:36:19;10.53;;;6.03;;
66298;SDS011;53098;47.658;8.578;2023-06-26T12:38:45;9.60;;;5.60;;
66298;SDS011;53098;47.658;8.578;2023-06-26T12:41:13;10.23;;;5.53;;
66298;SDS011;53098;47.658;8.578;2023-06-26T12:43:38;10.68;;;6.40;;
66298;SDS011;53098;47.658;8.578;2023-06-26T12:46:04;12.50;;;6.50;;
66298;SDS011;53098;47.658;8.578;2023-06-26T12:51:10;13.98;;;5.75;;
66298;SDS011;53098;47.658;8.578;2023-06-26T12:53:35;11.15;;;6.22;;
66298;SDS011;53098;47.658;8.578;2023-06-26T12:56:00;10.20;;;5.50;;
66298;SDS011;53098;47.658;8.578;2023-06-26T12:58:25;10.77;;;5.13;;
66298;SDS011;53098;47.658;8.578;2023-06-26T13:00:51;12.27;;;6.37;;
66298;SDS011;53098;47.658;8.578;2023-06-26T13:03:16;12.13;;;6.10;;
66298;SDS011;53098;47.658;8.578;2023-06-26T13:05:41;12.87;;;6.03;;
66298;SDS011;53098;47.658;8.578;2023-06-26T13:08:06;10.57;;;6.07;;
66298;SDS011;53098;47.658;8.578;2023-06-26T13:10:32;12.23;;;6.32;;
66298;SDS011;53098;47.658;8.578;2023-06-26T13:12:57;10.70;;;6.23;;
66298;SDS011;53098;47.658;8.578;2023-06-26T13:15:23;11.43;;;6.53;;
66298;SDS011;53098;47.658;8.578;2023-06-26T13:17:48;10.97;;;6.27;;
66298;SDS011;53098;47.658;8.578;2023-06-26T13:20:13;9.97;;;5.60;;
66298;SDS011;53098;47.658;8.578;2023-06-26T13:22:38;9.83;;;5.73;;
66298;SDS011;53098;47.658;8.578;2023-06-26T13:25:04;10.87;;;6.40;;
66298;SDS011;53098;47.658;8.578;2023-06-26T13:27:29;10.57;;;6.53;;
66298;SDS011;53098;47.658;8.578;2023-06-26T13:29:54;12.13;;;5.93;;
66298;SDS011;53098;47.658;8.578;2023-06-26T13:32:19;13.53;;;5.90;;
66298;SDS011;53098;47.658;8.578;2023-06-26T13:34:45;9.53;;;5.77;;
66298;SDS011;53098;47.658;8.578;2023-06-26T13:37:10;9.10;;;5.90;;
66298;SDS011;53098;47.658;8.578;2023-06-26T13:39:35;10.13;;;5.73;;
66298;SDS011;53098;47.658;8.578;2023-06-26T13:42:00;12.73;;;6.80;;
66298;SDS011;53098;47.658;8.578;2023-06-26T13:44:26;12.83;;;6.10;;
66298;SDS011;53098;47.658;8.578;2023-06-26T13:46:51;10.70;;;6.40;;
66298;SDS011;53098;47.658;8.578;2023-06-26T13:49:16;10.67;;;5.53;;
66298;SDS011;53098;47.658;8.578;2023-06-26T13:51:41;11.53;;;6.23;;
66298;SDS011;53098;47.658;8.578;2023-06-26T13:54:07;11.57;;;5.97;;
66298;SDS011;53098;47.658;8.578;2023-06-26T13:56:32;10.87;;;6.17;;
66298;SDS011;53098;47.658;8.578;2023-06-26T13:58:57;11.27;;;6.33;;
66298;SDS011;53098;47.658;8.578;2023-06-26T14:01:22;10.07;;;6.00;;
66298;SDS011;53098;47.658;8.578;2023-06-26T14:03:48;9.30;;;5.53;;
66298;SDS011;53098;47.658;8.578;2023-06-26T14:06:13;10.90;;;6.77;;
66298;SDS011;53098;47.658;8.578;2023-06-26T14:08:38;12.40;;;5.73;;
66298;SDS011;53098;47.658;8.578;2023-06-26T14:11:03;9.37;;;5.77;;
66298;SDS011;53098;47.658;8.578;2023-06-26T14:13:29;9.60;;;5.43;;
66298;SDS011;53098;47.658;8.578;2023-06-26T14:15:54;10.57;;;5.90;;
66298;SDS011;53098;47.658;8.578;2023-06-26T14:18:19;11.77;;;5.30;;
66298;SDS011;53098;47.658;8.578;2023-06-26T14:20:44;11.40;;;5.93;;
66298;SDS011;53098;47.658;8.578;2023-06-26T14:23:10;10.23;;;5.70;;
66298;SDS011;53098;47.658;8.578;2023-06-26T14:25:35;11.53;;;5.77;;
66298;SDS011;53098;47.658;8.578;2023-06-26T14:28:00;12.13;;;6.13;;
66298;SDS011;53098;47.658;8.578;2023-06-26T14:30:25;10.23;;;5.90;;
66298;SDS011;53098;47.658;8.578;2023-06-26T14:32:50;12.60;;;6.00;;
66298;SDS011;53098;47.658;8.578;2023-06-26T14:35:16;9.30;;;5.30;;
66298;SDS011;53098;47.658;8.578;2023-06-26T14:37:41;10.23;;;5.30;;
66298;SDS011;53098;47.658;8.578;2023-06-26T14:40:07;11.07;;;5.93;;
66298;SDS011;53098;47.658;8.578;2023-06-26T14:42:32;9.98;;;5.32;;
66298;SDS011;53098;47.658;8.578;2023-06-26T14:44:57;9.90;;;5.60;;
66298;SDS011;53098;47.658;8.578;2023-06-26T14:47:22;11.43;;;5.90;;
66298;SDS011;53098;47.658;8.578;2023-06-26T14:49:48;12.90;;;5.60;;